createdAt,value
2018-11-20T00:01:39.799Z,0.20
2018-11-20T00:05:13.798Z,0.20
2018-11-20T00:08:41.718Z,0.20
2018-11-20T00:12:16.048Z,0.20
2018-11-20T00:15:49.966Z,0.20
2018-11-20T00:19:13.636Z,0.20
2018-11-20T00:22:48.500Z,0.20
2018-11-20T00:26:19.854Z,0.20
2018-11-20T00:29:49.281Z,0.30
2018-11-20T00:33:17.062Z,0.30
2018-11-20T00:36:42.724Z,0.30
2018-11-20T00:40:10.099Z,0.30
2018-11-20T00:43:29.881Z,0.30
2018-11-20T00:47:07.412Z,0.30
2018-11-20T00:50:35.857Z,0.30
2018-11-20T00:53:50.943Z,0.30
2018-11-20T00:57:08.005Z,0.30
2018-11-20T01:00:32.198Z,0.30
2018-11-20T01:03:54.656Z,0.30
2018-11-20T01:07:27.111Z,0.30
2018-11-20T01:10:50.660Z,0.30
2018-11-20T01:14:14.814Z,0.40
2018-11-20T01:17:31.555Z,0.30
2018-11-20T01:20:59.662Z,0.40
2018-11-20T01:24:24.387Z,0.40
2018-11-20T01:27:41.459Z,0.40
2018-11-20T01:31:09.510Z,0.40
2018-11-20T01:34:34.771Z,0.40
2018-11-20T01:38:09.059Z,0.40
2018-11-20T01:41:26.748Z,0.40
2018-11-20T01:44:54.877Z,0.40
2018-11-20T01:48:13.255Z,0.40
2018-11-20T01:51:29.098Z,0.40
2018-11-20T01:54:52.376Z,0.40
2018-11-20T01:58:16.721Z,0.40
2018-11-20T02:01:47.529Z,0.40
2018-11-20T02:05:21.467Z,0.40
2018-11-20T02:08:46.619Z,0.40
2018-11-20T02:12:24.144Z,0.40
2018-11-20T02:16:00.674Z,0.40
2018-11-20T02:19:32.245Z,0.50
2018-11-20T02:22:56.174Z,0.50
2018-11-20T02:26:27.200Z,0.50
2018-11-20T02:30:04.741Z,0.50
2018-11-20T02:33:33.156Z,0.50
2018-11-20T02:36:51.744Z,0.60
2018-11-20T02:40:15.540Z,0.60
2018-11-20T02:43:37.162Z,0.60
2018-11-20T02:46:55.879Z,0.60
2018-11-20T02:50:15.441Z,0.60
2018-11-20T02:53:41.027Z,0.60
2018-11-20T02:57:21.741Z,0.60
2018-11-20T03:01:01.913Z,0.60
2018-11-20T03:04:30.216Z,0.60
2018-11-20T03:07:59.419Z,0.60
2018-11-20T03:11:23.479Z,0.60
2018-11-20T03:14:48.835Z,0.60
2018-11-20T03:18:17.383Z,0.60
2018-11-20T03:21:44.476Z,0.60
2018-11-20T03:25:09.102Z,0.60
2018-11-20T03:28:29.718Z,0.60
2018-11-20T03:31:53.896Z,0.60
2018-11-20T03:35:19.378Z,0.60
2018-11-20T03:38:43.279Z,0.60
2018-11-20T03:42:27.573Z,0.60
2018-11-20T03:45:44.989Z,0.60
2018-11-20T03:49:11.199Z,0.60
2018-11-20T03:52:48.669Z,0.70
2018-11-20T03:56:05.360Z,0.70
2018-11-20T03:59:40.387Z,0.70
2018-11-20T04:03:11.183Z,0.70
2018-11-20T04:06:29.375Z,0.70
2018-11-20T04:09:56.390Z,0.70
2018-11-20T04:13:29.604Z,0.70
2018-11-20T04:16:53.747Z,0.70
2018-11-20T04:20:27.669Z,0.70
2018-11-20T04:23:44.143Z,0.80
2018-11-20T04:27:08.001Z,0.80
2018-11-20T04:31:36.011Z,0.80
2018-11-20T04:35:04.096Z,0.80
2018-11-20T04:38:38.639Z,0.80
2018-11-20T04:42:06.112Z,0.80
2018-11-20T04:45:27.885Z,0.80
2018-11-20T04:48:53.099Z,0.80
2018-11-20T04:52:17.878Z,0.80
2018-11-20T04:55:52.121Z,0.80
2018-11-20T04:59:17.431Z,0.80
2018-11-20T05:02:41.323Z,0.90
2018-11-20T05:06:01.597Z,0.90
2018-11-20T05:09:29.285Z,0.90
2018-11-20T05:12:56.942Z,0.90
2018-11-20T05:16:30.792Z,0.90
2018-11-20T05:20:09.946Z,0.90
2018-11-20T05:23:38.176Z,0.90
2018-11-20T05:27:02.006Z,0.90
2018-11-20T05:30:26.863Z,0.90
2018-11-20T05:33:54.634Z,0.90
2018-11-20T05:37:12.945Z,1.00
2018-11-20T05:40:44.211Z,1.00
2018-11-20T05:44:09.061Z,1.00
2018-11-20T05:47:43.105Z,1.00
2018-11-20T05:51:13.646Z,1.00
2018-11-20T05:54:37.517Z,1.00
2018-11-20T05:58:01.159Z,1.00
2018-11-20T06:01:39.695Z,1.10
2018-11-20T06:05:18.867Z,1.10
2018-11-20T06:08:44.290Z,1.00
2018-11-20T06:12:15.161Z,1.10
2018-11-20T06:15:51.585Z,1.10
2018-11-20T06:19:34.874Z,1.10
2018-11-20T06:23:00.242Z,1.10
2018-11-20T06:26:34.163Z,1.10
2018-11-20T06:30:11.581Z,1.10
2018-11-20T06:33:35.049Z,1.10
2018-11-20T06:37:12.813Z,1.10
2018-11-20T06:40:31.207Z,1.10
2018-11-20T06:44:07.439Z,1.20
2018-11-20T06:47:31.153Z,1.20
2018-11-20T06:50:55.737Z,1.20
2018-11-20T06:54:20.935Z,1.20
2018-11-20T06:57:45.048Z,1.30
2018-11-20T07:01:12.613Z,1.30
2018-11-20T07:04:34.341Z,1.30
2018-11-20T07:08:02.973Z,1.30
2018-11-20T07:11:33.244Z,1.30
2018-11-20T07:18:37.323Z,1.30
2018-11-20T07:21:53.573Z,1.30
2018-11-20T07:25:33.782Z,1.40
2018-11-20T07:29:17.036Z,1.30
2018-11-20T07:32:40.786Z,1.40
2018-11-20T07:36:12.382Z,1.40
2018-11-20T07:39:40.550Z,1.40
2018-11-20T07:43:05.838Z,1.40
2018-11-20T07:46:31.615Z,1.40
2018-11-20T07:50:02.808Z,1.40
2018-11-20T07:53:39.405Z,1.40
2018-11-20T07:57:16.748Z,1.40
2018-11-20T08:00:35.435Z,1.40
2018-11-20T08:04:13.370Z,1.40
2018-11-20T08:07:50.906Z,1.40
2018-11-20T08:11:25.156Z,1.40
2018-11-20T08:14:41.687Z,1.50
2018-11-20T08:18:12.184Z,1.50
2018-11-20T08:21:46.689Z,1.50
2018-11-20T08:25:17.857Z,1.50
2018-11-20T08:28:45.769Z,1.50
2018-11-20T08:32:09.539Z,1.50
2018-11-20T08:35:32.018Z,1.50
2018-11-20T08:38:58.104Z,1.50
2018-11-20T08:42:23.383Z,1.60
2018-11-20T08:46:06.879Z,1.60
2018-11-20T08:49:31.062Z,1.70
2018-11-20T08:52:59.568Z,1.70
2018-11-20T08:56:23.458Z,1.70
2018-11-20T09:00:03.935Z,1.80
2018-11-20T09:03:27.784Z,1.80
2018-11-20T09:06:53.044Z,1.80
2018-11-20T09:10:17.210Z,1.80
2018-11-20T09:13:57.783Z,1.90
2018-11-20T09:17:22.004Z,1.90
2018-11-20T09:20:45.724Z,1.90
2018-11-20T09:24:06.013Z,1.90
2018-11-20T09:27:25.557Z,1.90
2018-11-20T09:30:54.470Z,1.90
2018-11-20T09:34:22.569Z,1.90
2018-11-20T09:37:50.678Z,1.90
2018-11-20T09:41:14.716Z,1.90
2018-11-20T09:45:28.556Z,1.90
2018-11-20T09:48:50.165Z,1.90
2018-11-20T09:52:09.186Z,1.90
2018-11-20T09:55:31.401Z,2.00
2018-11-20T09:58:55.612Z,1.90
2018-11-20T10:02:18.058Z,1.90
2018-11-20T10:05:42.201Z,1.90
2018-11-20T10:09:19.698Z,1.90
2018-11-20T10:12:52.126Z,1.90
2018-11-20T10:16:16.191Z,1.90
2018-11-20T10:19:52.058Z,1.90
2018-11-20T10:23:21.223Z,1.90
2018-11-20T10:26:49.293Z,2.00
2018-11-20T10:30:13.077Z,2.00
2018-11-20T10:33:37.238Z,2.10
2018-11-20T10:37:03.048Z,2.20
2018-11-20T10:40:45.029Z,2.20
2018-11-20T10:44:19.434Z,2.40
2018-11-20T10:47:43.412Z,2.40
2018-11-20T10:51:07.274Z,2.40
2018-11-20T10:54:38.822Z,2.40
2018-11-20T10:58:15.357Z,2.30
2018-11-20T11:01:23.627Z,2.20
2018-11-20T11:04:47.780Z,2.20
2018-11-20T11:08:12.194Z,2.20
2018-11-20T11:11:30.672Z,2.30
2018-11-20T11:15:07.570Z,2.40
2018-11-20T11:18:39.012Z,2.30
2018-11-20T11:22:04.332Z,2.30
2018-11-20T11:25:21.814Z,2.40
2018-11-20T11:29:02.434Z,2.30
2018-11-20T11:32:40.467Z,2.30
2018-11-20T11:36:08.482Z,2.30
2018-11-20T11:39:32.525Z,2.40
2018-11-20T11:43:04.190Z,2.30
2018-11-20T11:46:28.457Z,2.30
2018-11-20T11:50:03.083Z,2.20
2018-11-20T11:53:26.278Z,2.10
2018-11-20T11:56:51.586Z,2.00
2018-11-20T12:00:20.313Z,2.00
2018-11-20T12:03:47.547Z,2.00
2018-11-20T12:07:14.354Z,2.00
2018-11-20T12:10:39.435Z,1.90
2018-11-20T12:14:17.254Z,1.90
2018-11-20T12:17:41.722Z,1.90
2018-11-20T12:21:02.865Z,1.90
2018-11-20T12:24:29.242Z,1.90
2018-11-20T12:27:53.737Z,1.90
2018-11-20T12:31:26.374Z,1.90
2018-11-20T12:35:06.172Z,1.90
2018-11-20T12:38:31.246Z,1.90
2018-11-20T12:42:15.529Z,1.90
2018-11-20T12:45:55.859Z,1.90
2018-11-20T12:49:19.157Z,1.90
2018-11-20T12:52:56.733Z,1.90
2018-11-20T12:56:21.876Z,1.90
2018-11-20T12:59:57.964Z,1.90
2018-11-20T13:03:30.836Z,1.90
2018-11-20T13:07:07.445Z,2.00
2018-11-20T13:10:34.693Z,2.00
2018-11-20T13:13:59.467Z,2.00
2018-11-20T13:17:26.481Z,2.00
2018-11-20T13:20:54.391Z,2.00
2018-11-20T13:24:20.294Z,2.00
2018-11-20T13:27:49.295Z,2.00
2018-11-20T13:31:14.521Z,2.00
2018-11-20T13:34:40.971Z,1.90
2018-11-20T13:38:14.898Z,1.80
2018-11-20T13:42:01.154Z,1.80
2018-11-20T13:45:26.442Z,1.80
2018-11-20T13:48:48.951Z,1.80
2018-11-20T13:52:08.619Z,1.70
2018-11-20T13:55:29.741Z,1.70
2018-11-20T13:59:05.071Z,1.60
2018-11-20T14:02:29.591Z,1.60
2018-11-20T14:05:53.931Z,1.60
2018-11-20T14:09:27.845Z,1.60
2018-11-20T14:13:39.916Z,1.60
2018-11-20T14:17:04.010Z,1.60
2018-11-20T14:20:28.865Z,1.50
2018-11-20T14:23:53.519Z,1.50
2018-11-20T14:27:17.002Z,1.50
2018-11-20T14:30:40.450Z,1.50
2018-11-20T14:34:03.872Z,1.50
2018-11-20T14:37:31.669Z,1.50
2018-11-20T14:40:48.864Z,1.50
2018-11-20T14:44:32.012Z,1.60
2018-11-20T14:47:56.944Z,1.50
2018-11-20T14:51:27.428Z,1.50
2018-11-20T14:54:57.623Z,1.50
2018-11-20T14:58:08.038Z,1.50
2018-11-20T15:01:32.006Z,1.50
2018-11-20T15:05:03.125Z,1.50
2018-11-20T15:08:26.361Z,1.40
2018-11-20T15:11:52.517Z,1.40
2018-11-20T15:15:25.561Z,1.50
2018-11-20T15:18:49.458Z,1.50
2018-11-20T15:22:16.137Z,1.50
2018-11-20T15:25:40.121Z,1.50
2018-11-20T15:29:03.030Z,1.60
2018-11-20T15:32:27.063Z,1.60
2018-11-20T15:35:52.091Z,1.50
2018-11-20T15:39:34.384Z,1.50
2018-11-20T15:42:54.992Z,1.50
2018-11-20T15:46:31.337Z,1.60
2018-11-20T15:49:55.404Z,1.70
2018-11-20T15:53:34.671Z,1.80
2018-11-20T15:56:58.202Z,1.90
2018-11-20T16:00:40.299Z,1.90
2018-11-20T16:04:10.561Z,2.00
2018-11-20T16:07:33.754Z,2.10
2018-11-20T16:10:57.604Z,2.10
2018-11-20T16:14:24.059Z,2.10
2018-11-20T16:17:47.850Z,2.10
2018-11-20T16:21:11.518Z,2.20
2018-11-20T16:24:34.574Z,2.20
2018-11-20T16:28:02.668Z,2.10
2018-11-20T16:31:29.109Z,2.20
2018-11-20T16:34:57.375Z,2.20
2018-11-20T16:38:36.686Z,2.20
2018-11-20T16:42:01.069Z,2.10
2018-11-20T16:45:34.454Z,2.10
2018-11-20T16:49:15.921Z,2.10
2018-11-20T16:52:41.995Z,2.20
2018-11-20T16:56:15.441Z,2.20
2018-11-20T16:59:53.252Z,2.10
2018-11-20T17:03:33.247Z,2.10
2018-11-20T17:07:04.789Z,2.10
2018-11-20T17:10:31.418Z,2.10
2018-11-20T17:14:02.414Z,2.10
2018-11-20T17:17:47.399Z,2.10
2018-11-20T17:21:30.676Z,2.10
2018-11-20T17:24:57.850Z,2.10
2018-11-20T17:28:21.405Z,2.10
2018-11-20T17:31:54.307Z,2.10
2018-11-20T17:35:17.395Z,2.10
2018-11-20T17:38:52.042Z,2.10
2018-11-20T17:42:15.678Z,2.10
2018-11-20T17:45:47.079Z,2.10
2018-11-20T17:49:11.901Z,2.10
2018-11-20T17:52:31.834Z,2.00
2018-11-20T17:56:12.456Z,2.00
2018-11-20T17:59:42.774Z,2.10
2018-11-20T18:03:13.123Z,2.00
2018-11-20T18:06:55.454Z,2.00
2018-11-20T18:10:12.599Z,2.00
2018-11-20T18:13:25.033Z,2.00
2018-11-20T18:16:47.312Z,2.10
2018-11-20T18:20:20.767Z,2.10
2018-11-20T18:23:42.934Z,2.00
2018-11-20T18:27:21.097Z,2.00
2018-11-20T18:30:44.281Z,2.00
2018-11-20T18:34:05.973Z,2.00
2018-11-20T18:37:29.383Z,2.00
2018-11-20T18:41:03.025Z,2.00
2018-11-20T18:44:32.243Z,2.00
2018-11-20T18:47:52.948Z,2.00
2018-11-20T18:51:06.399Z,2.00
2018-11-20T18:54:16.603Z,2.00
2018-11-20T18:57:39.179Z,2.00
2018-11-20T19:01:02.401Z,2.00
2018-11-20T19:04:25.274Z,2.00
2018-11-20T19:07:54.381Z,2.00
2018-11-20T19:11:17.135Z,2.00
2018-11-20T19:14:42.972Z,2.00
2018-11-20T19:18:02.373Z,2.00
2018-11-20T19:21:20.316Z,2.00
2018-11-20T19:24:47.939Z,2.00
2018-11-20T19:28:20.369Z,2.00
2018-11-20T19:31:42.526Z,2.00
2018-11-20T19:35:06.078Z,2.00
2018-11-20T19:38:29.068Z,2.00
2018-11-20T19:42:04.405Z,2.00
2018-11-20T19:45:35.105Z,2.00
2018-11-20T19:49:07.204Z,2.00
2018-11-20T19:52:30.377Z,2.00
2018-11-20T19:55:54.438Z,2.00
2018-11-20T19:59:36.431Z,2.00
2018-11-20T20:02:59.796Z,2.00
2018-11-20T20:06:32.526Z,2.00
2018-11-20T20:09:59.404Z,2.00
2018-11-20T20:13:22.168Z,2.00
2018-11-20T20:16:43.927Z,2.00
2018-11-20T20:19:59.764Z,2.00
2018-11-20T20:23:12.840Z,2.00
2018-11-20T20:26:34.666Z,2.00
2018-11-20T20:30:01.206Z,2.10
2018-11-20T20:33:38.571Z,2.10
2018-11-20T20:37:01.543Z,2.10
2018-11-20T20:40:26.184Z,2.10
2018-11-20T20:43:50.013Z,2.10
2018-11-20T20:47:15.314Z,2.10
2018-11-20T20:50:39.648Z,2.10
2018-11-20T20:54:02.802Z,2.10
2018-11-20T20:57:29.716Z,2.10
2018-11-20T21:01:02.093Z,2.10
2018-11-20T21:04:26.804Z,2.10
2018-11-20T21:07:52.567Z,2.10
2018-11-20T21:11:22.081Z,2.10
2018-11-20T21:14:43.898Z,2.10
2018-11-20T21:18:09.714Z,2.10
2018-11-20T21:21:45.183Z,2.10
2018-11-20T21:25:08.478Z,2.10
2018-11-20T21:28:27.701Z,2.10
2018-11-20T21:31:51.305Z,2.10
2018-11-20T21:35:17.472Z,2.00
2018-11-20T21:38:40.081Z,2.10
2018-11-20T21:42:12.648Z,2.10
2018-11-20T21:45:36.027Z,2.10
2018-11-20T21:48:58.736Z,2.10
2018-11-20T21:52:28.490Z,2.00
2018-11-20T21:55:58.399Z,2.00
2018-11-20T21:59:32.434Z,2.00
2018-11-20T22:03:12.765Z,2.00
2018-11-20T22:06:39.153Z,2.10
2018-11-20T22:10:02.230Z,2.00
2018-11-20T22:13:44.056Z,2.00
2018-11-20T22:17:22.309Z,2.00
2018-11-20T22:20:44.213Z,2.00
2018-11-20T22:24:22.703Z,2.00
2018-11-20T22:27:49.509Z,2.00
2018-11-20T22:31:22.559Z,2.00
2018-11-20T22:35:04.368Z,2.00
2018-11-20T22:38:23.324Z,2.10
2018-11-20T22:41:50.706Z,2.00
2018-11-20T22:45:12.863Z,2.10
2018-11-20T22:48:42.536Z,2.00
2018-11-20T22:52:09.275Z,2.10
2018-11-20T22:55:25.377Z,2.00
2018-11-20T22:58:45.799Z,2.00
2018-11-20T23:02:14.724Z,2.00
2018-11-20T23:05:31.350Z,2.00
2018-11-20T23:08:35.508Z,2.00
2018-11-20T23:11:40.868Z,2.00
2018-11-20T23:14:46.200Z,2.00
2018-11-20T23:17:51.119Z,2.00
2018-11-20T23:20:56.608Z,2.00
2018-11-20T23:24:01.447Z,2.00
2018-11-20T23:27:09.800Z,2.00
2018-11-20T23:30:14.588Z,2.00
2018-11-20T23:33:19.560Z,2.00
2018-11-20T23:36:24.610Z,2.00
2018-11-20T23:39:29.100Z,2.00
2018-11-20T23:42:33.177Z,2.00
2018-11-20T23:45:37.317Z,1.90
2018-11-20T23:48:41.450Z,1.90
2018-11-20T23:51:47.128Z,2.00
2018-11-20T23:54:51.256Z,1.90
2018-11-20T23:57:59.249Z,1.90
